Time;durP1;ratioP1;P1;durP2;ratioP2;P2;SDS_P1;SDS_P2;PMS_P1;PMS_P2;Temp;Humidity;BMP_temperature;BMP_pressure;BME280_temperature;BME280_humidity;BME280_pressure;Samples;Min_cycle;Max_cycle;Signal;HPM_P1;HPM_P2
2021/01/24 00:00:27;;;;;;;20.65;10.85;;;3.00;85.60;;;;;;5040168;28;20039;-64
2021/01/24 00:02:52;;;;;;;20.83;10.07;;;3.00;85.50;;;;;;5039704;28;20641;-65
2021/01/24 00:05:19;;;;;;;18.65;10.35;;;3.00;85.80;;;;;;5037340;28;20040;-64
2021/01/24 00:07:44;;;;;;;20.88;9.48;;;3.00;85.70;;;;;;5039707;28;20044;-65
2021/01/24 00:10:13;;;;;;;18.05;10.65;;;3.10;85.60;;;;;;5039483;28;20103;-64
2021/01/24 00:12:40;;;;;;;18.83;9.45;;;3.10;85.90;;;;;;5039806;28;20029;-64
2021/01/24 00:15:07;;;;;;;18.65;9.68;;;3.10;85.70;;;;;;5039496;28;20047;-64
2021/01/24 00:17:32;;;;;;;18.35;9.90;;;3.10;86.50;;;;;;5038351;28;20040;-64
2021/01/24 00:19:59;;;;;;;18.98;10.10;;;3.00;85.60;;;;;;5039867;28;20025;-65
2021/01/24 00:22:27;;;;;;;16.02;8.10;;;3.00;85.60;;;;;;5039666;28;20770;-64
2021/01/24 00:24:53;;;;;;;19.55;10.05;;;3.00;85.30;;;;;;5037613;28;20793;-64
2021/01/24 00:27:19;;;;;;;23.33;11.18;;;3.00;85.20;;;;;;5039808;28;20043;-64
2021/01/24 00:29:44;;;;;;;21.50;10.52;;;3.10;84.90;;;;;;5038845;28;20029;-64
2021/01/24 00:32:10;;;;;;;19.27;10.50;;;3.00;84.80;;;;;;5031371;28;20112;-64
2021/01/24 00:34:36;;;;;;;16.92;9.73;;;3.00;85.00;;;;;;5039800;28;20052;-64
2021/01/24 00:37:02;;;;;;;19.55;10.05;;;3.00;85.10;;;;;;5037277;28;20080;-64
2021/01/24 00:39:28;;;;;;;18.35;9.85;;;3.00;85.30;;;;;;5033845;28;20033;-64
2021/01/24 00:41:53;;;;;;;15.75;8.95;;;3.00;85.40;;;;;;5038106;28;20044;-64
2021/01/24 00:44:19;;;;;;;18.30;9.45;;;3.10;85.40;;;;;;5038292;28;20041;-64
2021/01/24 00:46:45;;;;;;;18.40;10.38;;;3.10;85.30;;;;;;5037337;28;20036;-63
2021/01/24 00:49:10;;;;;;;21.10;10.38;;;3.10;85.30;;;;;;5040436;28;20094;-64
2021/01/24 00:51:36;;;;;;;13.80;8.38;;;3.20;85.40;;;;;;5042920;28;20056;-63
2021/01/24 00:54:02;;;;;;;18.88;10.15;;;3.20;85.30;;;;;;5039002;28;20033;-63
2021/01/24 00:56:28;;;;;;;21.23;9.98;;;3.20;85.30;;;;;;5039520;28;20047;-63
2021/01/24 00:58:54;;;;;;;16.88;9.73;;;3.20;85.20;;;;;;5039411;28;20033;-63
2021/01/24 01:01:19;;;;;;;18.30;10.02;;;3.30;85.20;;;;;;5039231;28;20028;-63
2021/01/24 01:03:45;;;;;;;20.55;11.07;;;3.30;84.80;;;;;;5038815;28;20037;-63
2021/01/24 01:06:10;;;;;;;18.83;10.05;;;3.20;84.20;;;;;;5038846;28;20048;-63
2021/01/24 01:08:36;;;;;;;20.52;11.13;;;3.20;83.90;;;;;;5038601;28;20049;-63
2021/01/24 01:11:02;;;;;;;18.83;10.85;;;3.20;84.50;;;;;;5037935;28;20110;-63
2021/01/24 01:13:28;;;;;;;17.60;9.65;;;3.20;84.90;;;;;;5035912;28;20825;-63
2021/01/24 01:15:54;;;;;;;19.75;10.13;;;3.20;85.30;;;;;;5038424;28;20044;-63
2021/01/24 01:18:19;;;;;;;19.13;10.35;;;3.20;84.80;;;;;;5036248;28;20059;-63
2021/01/24 01:20:45;;;;;;;21.38;11.43;;;3.20;84.80;;;;;;5038252;28;20821;-63
2021/01/24 01:23:10;;;;;;;22.45;11.80;;;3.20;84.90;;;;;;5032913;28;20048;-63
2021/01/24 01:25:36;;;;;;;20.73;10.48;;;3.20;84.90;;;;;;5031049;28;20032;-63
2021/01/24 01:28:02;;;;;;;;;;;3.20;84.90;;;;;;5039601;28;20036;-63
2021/01/24 01:30:27;;;;;;;18.23;10.20;;;3.20;84.70;;;;;;5037945;28;19978;-63
2021/01/24 01:32:53;;;;;;;18.92;10.77;;;3.20;84.90;;;;;;5038664;28;20048;-63
2021/01/24 01:35:19;;;;;;;18.58;9.30;;;3.10;84.90;;;;;;5037774;28;20103;-63
2021/01/24 01:37:44;;;;;;;22.17;10.85;;;3.10;85.00;;;;;;5035575;28;20033;-63
2021/01/24 01:40:11;;;;;;;20.70;11.50;;;3.20;85.30;;;;;;5030751;28;20037;-62
2021/01/24 01:42:36;;;;;;;19.30;10.60;;;3.20;85.10;;;;;;5037060;28;20309;-63
2021/01/24 01:45:04;;;;;;;20.25;9.70;;;3.20;85.00;;;;;;5034557;28;20098;-63
2021/01/24 01:47:30;;;;;;;20.25;10.95;;;3.20;85.00;;;;;;5029274;28;20071;-63
2021/01/24 01:49:57;;;;;;;18.88;10.50;;;3.10;85.00;;;;;;5035895;28;20147;-62
2021/01/24 01:52:27;;;;;;;21.25;10.38;;;3.10;85.30;;;;;;5035239;28;20112;-63
2021/01/24 01:54:54;;;;;;;21.35;10.05;;;3.10;85.30;;;;;;5034806;28;20134;-63
2021/01/24 01:57:21;;;;;;;20.42;10.35;;;3.10;85.40;;;;;;5035036;28;20056;-63
2021/01/24 01:59:47;;;;;;;18.55;9.30;;;3.10;85.30;;;;;;5037940;28;20044;-63
2021/01/24 02:02:29;;;;;;;20.33;10.75;;;3.10;85.20;;;;;;5038041;28;20047;-63
2021/01/24 02:05:10;;;;;;;18.75;9.93;;;3.10;85.30;;;;;;5028759;28;20075;-63
2021/01/24 02:07:46;;;;;;;24.00;11.45;;;3.20;85.10;;;;;;5037777;28;20080;-64
2021/01/24 02:10:29;;;;;;;17.67;9.70;;;3.20;85.10;;;;;;5037619;28;20045;-64
2021/01/24 02:13:17;;;;;;;16.20;9.90;;;3.10;85.10;;;;;;5036449;28;20044;-63
2021/01/24 02:15:45;;;;;;;19.38;10.65;;;3.20;85.50;;;;;;5034273;28;20073;-63
2021/01/24 02:18:11;;;;;;;18.02;9.63;;;3.10;85.40;;;;;;5035905;28;20033;-63
2021/01/24 02:21:02;;;;;;;19.38;10.07;;;3.20;85.10;;;;;;5036028;28;20731;-63
2021/01/24 02:23:29;;;;;;;18.80;10.23;;;3.20;85.00;;;;;;5037237;28;20041;-64
2021/01/24 02:26:22;;;;;;;18.50;9.77;;;3.20;85.30;;;;;;5034998;28;20523;-63
2021/01/24 02:29:22;;;;;;;19.23;9.90;;;3.20;85.60;;;;;;5025649;28;20106;-63
2021/01/24 02:31:49;;;;;;;20.33;10.57;;;3.10;85.30;;;;;;5037328;28;20040;-63
2021/01/24 02:34:18;;;;;;;21.75;10.68;;;3.10;86.00;;;;;;5032030;28;20045;-63
2021/01/24 02:36:46;;;;;;;19.35;9.52;;;3.10;85.80;;;;;;5036626;28;20032;-63
2021/01/24 02:39:13;;;;;;;18.73;10.63;;;3.10;85.70;;;;;;5032022;28;20045;-63
2021/01/24 02:41:39;;;;;;;18.90;10.45;;;3.10;85.80;;;;;;5030973;28;20041;-64
2021/01/24 02:44:08;;;;;;;20.40;11.05;;;3.20;85.70;;;;;;5026141;28;20208;-63
2021/01/24 02:46:35;;;;;;;17.30;9.75;;;3.10;85.30;;;;;;5036864;28;20052;-62
2021/01/24 02:49:01;;;;;;;18.88;9.80;;;3.10;85.30;;;;;;5032476;28;20098;-63
2021/01/24 02:51:28;;;;;;;20.60;10.18;;;3.10;86.20;;;;;;5024072;28;20518;-63
2021/01/24 02:53:55;;;;;;;17.83;10.00;;;3.00;86.20;;;;;;5037385;28;20040;-63
2021/01/24 02:56:22;;;;;;;16.85;9.30;;;3.10;85.80;;;;;;5036748;28;20151;-63
2021/01/24 02:58:49;;;;;;;17.05;9.32;;;3.10;85.30;;;;;;5027068;28;20180;-63
2021/01/24 03:01:15;;;;;;;17.67;9.27;;;3.10;85.70;;;;;;5033758;28;20036;-63
2021/01/24 03:03:41;;;;;;;17.02;9.43;;;3.20;85.70;;;;;;5036982;28;20035;-63
2021/01/24 03:06:08;;;;;;;18.73;9.95;;;3.20;85.80;;;;;;5026285;28;20554;-63
2021/01/24 03:08:35;;;;;;;17.65;10.18;;;3.20;85.60;;;;;;5032467;28;20029;-63
2021/01/24 03:11:05;;;;;;;16.98;9.30;;;3.20;85.50;;;;;;5037525;28;20392;-63
2021/01/24 03:13:50;;;;;;;19.55;10.95;;;3.30;85.40;;;;;;5032020;28;20118;-63
2021/01/24 03:16:16;;;;;;;20.05;9.88;;;3.30;85.50;;;;;;5036853;28;20064;-63
2021/01/24 03:18:45;;;;;;;17.95;10.10;;;3.30;85.40;;;;;;5037417;28;20047;-64
2021/01/24 03:21:13;;;;;;;20.45;10.30;;;3.30;85.00;;;;;;5036702;28;20098;-63
2021/01/24 03:23:40;;;;;;;17.35;10.13;;;3.30;85.10;;;;;;5029805;28;20049;-63
2021/01/24 03:26:07;;;;;;;21.42;10.95;;;3.30;85.00;;;;;;5032224;28;20064;-63
2021/01/24 03:28:35;;;;;;;20.85;10.60;;;3.40;85.20;;;;;;5029431;28;20037;-64
2021/01/24 03:31:08;;;;;;;22.45;11.02;;;3.40;85.20;;;;;;5030402;28;20033;-63
2021/01/24 03:33:35;;;;;;;17.25;9.88;;;3.40;85.40;;;;;;5025694;28;20120;-63
2021/01/24 03:36:01;;;;;;;19.63;11.00;;;3.40;84.70;;;;;;5035994;28;20334;-63
2021/01/24 03:38:26;;;;;;;23.00;11.07;;;3.30;85.00;;;;;;5031232;28;20029;-63
2021/01/24 03:40:53;;;;;;;17.35;9.90;;;3.30;85.30;;;;;;5031630;28;20041;-63
2021/01/24 03:43:19;;;;;;;21.83;11.02;;;3.20;85.60;;;;;;5033685;28;20040;-63
2021/01/24 03:45:44;;;;;;;20.50;11.02;;;3.20;85.80;;;;;;5025327;28;20040;-63
2021/01/24 03:48:10;;;;;;;20.77;10.88;;;3.10;86.20;;;;;;5025840;28;20035;-63
2021/01/24 03:50:36;;;;;;;18.60;10.82;;;3.20;86.10;;;;;;5036889;28;20111;-63
2021/01/24 03:53:01;;;;;;;21.20;11.30;;;3.20;85.80;;;;;;5034943;28;20043;-64
2021/01/24 03:55:27;;;;;;;18.30;10.15;;;3.30;85.20;;;;;;5036862;28;20112;-63
2021/01/24 03:57:53;;;;;;;20.80;10.70;;;3.30;85.00;;;;;;5036489;28;20032;-63
2021/01/24 04:00:19;;;;;;;20.13;10.60;;;3.30;85.30;;;;;;5034366;28;20124;-63
2021/01/24 04:02:44;;;;;;;18.98;10.77;;;3.20;85.10;;;;;;5036079;28;20064;-64
2021/01/24 04:05:13;;;;;;;19.75;10.70;;;3.30;85.30;;;;;;5033584;28;20021;-63
2021/01/24 04:07:39;;;;;;;17.95;10.10;;;3.30;84.90;;;;;;5038655;28;20033;-63
2021/01/24 04:10:06;;;;;;;20.17;10.15;;;3.40;84.70;;;;;;5031941;28;20033;-63
2021/01/24 04:12:32;;;;;;;17.42;9.65;;;3.40;84.70;;;;;;5036443;28;20054;-63
2021/01/24 04:14:58;;;;;;;18.17;10.75;;;3.40;84.70;;;;;;5035287;28;20074;-63
2021/01/24 04:17:23;;;;;;;18.60;10.48;;;3.40;84.80;;;;;;5040271;28;20025;-63
2021/01/24 04:19:49;;;;;;;23.25;10.73;;;3.40;84.50;;;;;;5040101;28;20754;-63
2021/01/24 04:22:15;;;;;;;16.25;9.02;;;3.40;84.70;;;;;;5039587;28;20440;-63
2021/01/24 04:24:40;;;;;;;19.58;10.20;;;3.40;85.10;;;;;;5034273;28;20406;-63
2021/01/24 04:27:06;;;;;;;20.73;10.18;;;3.50;84.60;;;;;;5039638;28;20044;-63
2021/01/24 04:29:31;;;;;;;17.23;9.75;;;3.50;84.50;;;;;;5039674;28;20140;-63
2021/01/24 04:31:57;;;;;;;17.23;9.52;;;3.50;84.50;;;;;;5036765;28;20040;-63
2021/01/24 04:34:24;;;;;;;;;;;3.50;84.10;;;;;;5040153;28;20028;-63
2021/01/24 04:36:49;;;;;;;20.00;9.65;;;3.40;84.40;;;;;;5038802;28;20023;-63
2021/01/24 04:39:15;;;;;;;20.83;10.82;;;3.40;84.60;;;;;;5028760;28;20949;-63
2021/01/24 04:41:42;;;;;;;16.70;9.18;;;3.40;84.50;;;;;;5035353;28;20036;-63
2021/01/24 04:44:07;;;;;;;20.05;9.50;;;3.30;85.40;;;;;;5039020;28;20107;-63
2021/01/24 04:46:34;;;;;;;18.35;9.88;;;3.30;85.20;;;;;;5037326;28;20404;-63
2021/01/24 04:49:04;;;;;;;17.35;9.80;;;3.40;85.30;;;;;;5039070;28;20083;-64
2021/01/24 04:51:30;;;;;;;21.92;10.73;;;3.40;85.30;;;;;;5032883;28;20047;-63
2021/01/24 04:53:57;;;;;;;18.02;9.45;;;3.40;85.00;;;;;;5030698;28;20064;-62
2021/01/24 04:56:23;;;;;;;18.20;9.80;;;3.50;84.60;;;;;;5035613;28;20055;-62
2021/01/24 04:58:53;;;;;;;17.80;9.30;;;3.50;85.00;;;;;;5033183;28;20064;-63
2021/01/24 05:01:20;;;;;;;18.33;9.55;;;3.50;85.00;;;;;;5039706;28;20075;-63
2021/01/24 05:03:47;;;;;;;15.93;10.13;;;3.50;84.90;;;;;;5034473;28;20052;-62
2021/01/24 05:06:13;;;;;;;18.88;10.70;;;3.50;84.90;;;;;;5036804;28;20024;-63
2021/01/24 05:08:44;;;;;;;16.08;9.45;;;3.60;85.20;;;;;;5031824;28;20082;-63
2021/01/24 05:11:10;;;;;;;18.58;9.40;;;3.60;85.10;;;;;;5039455;28;20025;-63
2021/01/24 05:13:36;;;;;;;17.17;9.77;;;3.60;84.60;;;;;;5033343;28;20051;-62
2021/01/24 05:16:04;;;;;;;17.95;9.45;;;3.60;84.50;;;;;;5038594;28;20033;-63
2021/01/24 05:18:30;;;;;;;18.48;9.13;;;3.70;84.60;;;;;;5034911;28;20037;-63
2021/01/24 05:20:57;;;;;;;15.90;8.60;;;3.50;85.00;;;;;;5028478;28;20530;-62
2021/01/24 05:23:24;;;;;;;18.80;9.30;;;3.50;85.20;;;;;;5038254;28;20043;-63
2021/01/24 05:25:53;;;;;;;19.20;10.18;;;3.50;85.30;;;;;;5038952;28;20063;-64
2021/01/24 05:28:25;;;;;;;23.90;10.35;;;3.40;85.70;;;;;;5038676;28;20033;-62
2021/01/24 05:31:01;;;;;;;23.42;11.85;;;3.30;86.70;;;;;;5038473;28;20136;-63
2021/01/24 05:33:26;;;;;;;19.45;9.20;;;3.20;87.40;;;;;;5028017;28;20539;-63
2021/01/24 05:35:52;;;;;;;17.75;10.23;;;3.20;87.40;;;;;;5038180;28;20044;-63
2021/01/24 05:38:28;;;;;;;22.00;10.20;;;3.20;87.30;;;;;;5037139;28;20078;-63
2021/01/24 05:41:03;;;;;;;19.05;9.50;;;3.30;87.10;;;;;;5035116;28;20173;-63
2021/01/24 05:43:34;;;;;;;22.95;10.38;;;3.30;87.20;;;;;;5037769;28;20037;-63
2021/01/24 05:46:00;;;;;;;18.80;9.48;;;3.40;86.80;;;;;;5038439;28;20033;-63
2021/01/24 05:48:27;;;;;;;16.27;8.55;;;3.40;86.60;;;;;;5035469;28;20040;-63
2021/01/24 05:50:52;;;;;;;21.50;9.63;;;3.50;86.40;;;;;;5038308;28;20087;-63
2021/01/24 05:53:18;;;;;;;14.75;7.82;;;3.50;86.40;;;;;;5037784;28;20116;-63
2021/01/24 05:55:45;;;;;;;15.57;8.75;;;3.50;86.50;;;;;;5025594;28;20049;-63
2021/01/24 05:58:24;;;;;;;16.80;9.25;;;3.60;86.00;;;;;;5035537;28;20916;-63
2021/01/24 06:00:53;;;;;;;16.48;8.48;;;3.70;85.90;;;;;;5035677;28;20086;-63
2021/01/24 06:03:19;;;;;;;18.02;9.10;;;3.70;85.30;;;;;;5029872;28;20041;-63
2021/01/24 06:05:46;;;;;;;15.82;7.70;;;3.70;85.90;;;;;;5011720;28;20030;-63
2021/01/24 06:08:14;;;;;;;15.68;7.63;;;3.60;86.50;;;;;;5016534;28;20030;-63
2021/01/24 06:10:40;;;;;;;14.65;7.30;;;3.60;86.20;;;;;;5015458;28;20048;-63
2021/01/24 06:13:17;;;;;;;17.13;7.35;;;3.50;85.90;;;;;;5011620;28;20167;-63
2021/01/24 06:15:43;;;;;;;12.52;6.63;;;3.50;86.60;;;;;;5014174;28;20044;-63
2021/01/24 06:18:15;;;;;;;15.18;7.15;;;3.40;86.70;;;;;;5028970;28;20029;-63
2021/01/24 06:20:56;;;;;;;15.90;6.70;;;3.40;87.00;;;;;;5017007;28;20779;-63
2021/01/24 06:23:28;;;;;;;13.85;7.03;;;3.40;87.30;;;;;;5023002;28;20075;-64
2021/01/24 06:26:04;;;;;;;13.20;6.28;;;3.50;87.40;;;;;;5018760;28;20045;-63
2021/01/24 06:28:37;;;;;;;12.75;6.45;;;3.50;86.90;;;;;;5021599;28;20769;-63
2021/01/24 06:31:04;;;;;;;13.48;6.10;;;3.50;86.80;;;;;;5011886;28;20040;-63
2021/01/24 06:33:29;;;;;;;11.73;5.72;;;3.50;86.60;;;;;;5017054;28;20043;-63
2021/01/24 06:35:59;;;;;;;13.10;6.28;;;3.40;86.80;;;;;;5007381;28;20041;-63
2021/01/24 06:38:32;;;;;;;13.45;6.13;;;3.30;87.90;;;;;;5030897;28;20489;-63
2021/01/24 06:41:00;;;;;;;12.07;6.57;;;3.20;88.10;;;;;;5016749;28;20068;-63
2021/01/24 06:43:46;;;;;;;13.93;6.30;;;3.10;89.00;;;;;;5009983;28;20042;-63
2021/01/24 06:46:26;;;;;;;10.98;6.30;;;3.10;89.40;;;;;;5014940;28;20034;-63
2021/01/24 06:48:53;;;;;;;14.13;6.65;;;3.00;89.40;;;;;;5011450;28;20061;-63
2021/01/24 06:51:38;;;;;;;13.00;6.45;;;3.00;89.80;;;;;;5027630;28;20037;-63
2021/01/24 06:54:15;;;;;;;13.82;6.30;;;2.90;90.10;;;;;;5017387;28;20050;-64
2021/01/24 06:56:43;;;;;;;11.57;5.70;;;2.90;90.00;;;;;;5022270;28;20158;-63
2021/01/24 06:59:11;;;;;;;11.40;5.72;;;3.00;89.80;;;;;;5023823;28;20049;-62
2021/01/24 07:01:37;;;;;;;12.43;6.03;;;3.00;89.60;;;;;;5018041;28;20137;-63
2021/01/24 07:04:23;;;;;;;12.35;5.85;;;3.10;89.40;;;;;;5017642;28;20030;-62
2021/01/24 07:07:30;;;;;;;11.45;5.72;;;3.20;89.20;;;;;;5023822;28;20519;-63
2021/01/24 07:09:55;;;;;;;12.32;6.13;;;3.30;88.70;;;;;;5010539;28;20029;-63
2021/01/24 07:12:33;;;;;;;9.23;5.07;;;3.10;89.10;;;;;;5017087;28;20056;-63
2021/01/24 07:14:59;;;;;;;12.52;5.63;;;3.00;90.00;;;;;;5020735;28;20033;-63
2021/01/24 07:17:26;;;;;;;10.13;5.65;;;3.10;90.00;;;;;;5023129;28;20096;-63
2021/01/24 07:19:54;;;;;;;12.98;5.82;;;3.00;90.00;;;;;;5028227;28;20140;-63
2021/01/24 07:22:21;;;;;;;11.88;5.82;;;3.00;90.00;;;;;;5016683;28;20033;-64
2021/01/24 07:24:48;;;;;;;10.63;5.25;;;3.10;90.10;;;;;;5022693;28;20371;-64
2021/01/24 07:27:28;;;;;;;10.63;6.20;;;3.10;89.80;;;;;;5016343;28;20025;-63
2021/01/24 07:29:55;;;;;;;10.32;5.30;;;3.20;89.90;;;;;;5021017;28;20029;-64
2021/01/24 07:32:25;;;;;;;11.05;5.30;;;3.30;89.00;;;;;;5016283;28;20840;-64
2021/01/24 07:34:53;;;;;;;10.65;5.00;;;3.50;88.40;;;;;;5011007;28;20793;-64
2021/01/24 07:37:19;;;;;;;9.85;5.22;;;3.40;88.20;;;;;;5015439;28;20120;-63
2021/01/24 07:39:46;;;;;;;9.35;4.57;;;3.40;88.30;;;;;;5018873;28;20049;-64
2021/01/24 07:42:13;;;;;;;10.05;4.93;;;3.40;88.30;;;;;;5006053;28;20042;-63
2021/01/24 07:44:41;;;;;;;11.18;5.20;;;3.30;89.00;;;;;;5022626;28;20061;-63
2021/01/24 07:47:08;;;;;;;8.82;4.82;;;3.30;89.50;;;;;;5022913;28;20135;-64
2021/01/24 07:49:35;;;;;;;9.27;4.70;;;3.20;90.00;;;;;;5023649;28;20122;-64
2021/01/24 07:52:02;;;;;;;9.38;4.70;;;3.20;89.90;;;;;;5017716;28;20128;-63
2021/01/24 07:54:28;;;;;;;8.82;4.50;;;3.10;90.30;;;;;;5023551;28;20041;-63
2021/01/24 07:56:54;;;;;;;12.40;4.05;;;3.10;90.00;;;;;;5027022;28;20039;-64
2021/01/24 07:59:20;;;;;;;11.90;4.18;;;3.20;90.00;;;;;;5015842;28;20037;-63
2021/01/24 08:01:46;;;;;;;7.70;3.90;;;3.10;90.10;;;;;;5028129;28;20044;-63
2021/01/24 08:04:11;;;;;;;8.27;3.80;;;3.20;90.00;;;;;;5025220;28;20021;-63
2021/01/24 08:06:38;;;;;;;8.75;3.83;;;3.30;89.50;;;;;;5021527;28;20606;-63
2021/01/24 08:09:08;;;;;;;8.57;4.03;;;3.30;89.60;;;;;;5033140;28;20114;-63
2021/01/24 08:11:35;;;;;;;7.70;4.45;;;3.20;90.00;;;;;;5018447;28;20057;-63
2021/01/24 08:14:01;;;;;;;7.88;3.95;;;3.30;89.70;;;;;;5024531;28;20120;-62
2021/01/24 08:16:34;;;;;;;7.57;4.40;;;3.40;89.30;;;;;;5013482;28;20087;-64
2021/01/24 08:19:02;;;;;;;6.20;3.20;;;3.60;88.30;;;;;;5022944;28;20037;-64
2021/01/24 08:21:28;;;;;;;6.03;3.40;;;3.70;87.80;;;;;;5028846;28;20241;-64
2021/01/24 08:23:54;;;;;;;6.85;3.70;;;3.80;87.30;;;;;;5030949;28;20041;-64
2021/01/24 08:26:21;;;;;;;7.32;3.33;;;3.80;87.20;;;;;;5026535;28;20025;-64
2021/01/24 08:28:48;;;;;;;7.90;3.58;;;3.90;87.00;;;;;;5024014;28;20094;-64
2021/01/24 08:31:21;;;;;;;6.35;3.30;;;3.90;86.90;;;;;;5016954;28;20117;-63
2021/01/24 08:33:49;;;;;;;5.78;3.50;;;3.90;87.00;;;;;;5032849;28;20040;-63
2021/01/24 08:36:17;;;;;;;6.53;3.13;;;3.90;87.30;;;;;;5027476;28;20045;-64
2021/01/24 08:38:45;;;;;;;8.90;3.60;;;3.90;87.10;;;;;;5029660;28;20069;-63
2021/01/24 08:41:12;;;;;;;5.05;3.25;;;3.90;86.80;;;;;;5023303;28;20049;-64
2021/01/24 08:43:39;;;;;;;9.23;3.22;;;4.00;86.90;;;;;;5007939;28;20050;-64
2021/01/24 08:46:24;;;;;;;6.50;3.30;;;4.00;87.00;;;;;;5025552;28;20061;-64
2021/01/24 08:49:03;;;;;;;7.28;3.13;;;4.10;87.00;;;;;;5008103;28;20109;-63
2021/01/24 08:51:41;;;;;;;5.95;3.30;;;4.10;86.40;;;;;;5020762;28;20084;-64
2021/01/24 08:54:27;;;;;;;5.50;2.92;;;4.20;86.00;;;;;;5021000;28;20111;-64
2021/01/24 08:57:12;;;;;;;3.65;2.90;;;4.20;86.10;;;;;;5026227;28;20036;-64
2021/01/24 08:59:39;;;;;;;6.85;3.63;;;4.10;86.40;;;;;;5014792;28;20088;-63
2021/01/24 09:02:05;;;;;;;8.15;3.50;;;4.20;90.10;;;;;;5022741;28;20162;-64
2021/01/24 09:04:33;;;;;;;4.97;3.05;;;4.60;88.80;;;;;;5026350;28;20036;-64
2021/01/24 09:07:05;;;;;;;7.22;3.03;;;5.00;87.60;;;;;;5010970;28;20041;-64
2021/01/24 09:09:32;;;;;;;5.88;2.67;;;5.60;82.00;;;;;;5017999;28;20041;-65
2021/01/24 09:11:59;;;;;;;4.43;2.67;;;6.00;80.60;;;;;;5022924;28;20047;-64
2021/01/24 09:14:25;;;;;;;5.00;2.50;;;6.40;78.40;;;;;;5026845;28;20037;-72
2021/01/24 09:17:06;;;;;;;4.55;2.70;;;6.70;74.90;;;;;;4999354;28;20036;-64
2021/01/24 09:19:41;;;;;;;5.80;2.78;;;6.80;73.50;;;;;;5017526;28;20116;-64
2021/01/24 09:22:10;;;;;;;4.72;2.75;;;6.70;73.60;;;;;;5021736;28;20056;-64
2021/01/24 09:24:37;;;;;;;4.32;2.35;;;6.40;74.90;;;;;;5017883;28;20141;-65
2021/01/24 09:27:04;;;;;;;4.60;2.55;;;6.20;75.60;;;;;;5031399;28;20037;-65
2021/01/24 09:29:30;;;;;;;3.25;2.13;;;6.00;76.30;;;;;;5017229;28;20045;-64
2021/01/24 09:31:56;;;;;;;4.03;2.47;;;5.70;77.70;;;;;;5018406;28;20037;-65
2021/01/24 09:34:22;;;;;;;5.00;2.10;;;5.60;78.20;;;;;;5032009;28;20040;-64
2021/01/24 09:36:48;;;;;;;5.40;2.50;;;5.50;79.40;;;;;;5026715;28;20033;-64
2021/01/24 09:39:14;;;;;;;5.40;2.22;;;5.40;79.80;;;;;;5022965;28;20448;-64
2021/01/24 09:41:39;;;;;;;4.90;2.92;;;5.30;80.50;;;;;;5023885;28;20854;-65
2021/01/24 09:44:06;;;;;;;4.05;2.15;;;5.20;81.00;;;;;;5008219;28;20029;-64
2021/01/24 09:46:31;;;;;;;6.13;2.45;;;5.10;81.40;;;;;;5023539;28;20036;-64
2021/01/24 09:48:57;;;;;;;4.97;2.65;;;5.10;82.10;;;;;;5026084;28;20082;-64
2021/01/24 09:51:23;;;;;;;5.28;2.90;;;4.90;82.60;;;;;;5018132;28;20028;-64
2021/01/24 09:53:51;;;;;;;4.60;2.53;;;4.90;83.10;;;;;;5019126;28;20107;-64
2021/01/24 09:56:17;;;;;;;6.35;2.83;;;4.80;83.50;;;;;;5018600;28;20039;-64
2021/01/24 09:58:42;;;;;;;3.17;2.22;;;4.70;84.20;;;;;;5022449;28;20041;-64
2021/01/24 10:01:09;;;;;;;5.20;2.28;;;4.60;84.20;;;;;;5031801;28;20041;-64
2021/01/24 10:03:34;;;;;;;3.80;2.40;;;4.60;85.20;;;;;;5012642;28;20052;-65
2021/01/24 10:06:00;;;;;;;3.33;2.13;;;4.60;85.10;;;;;;5017611;28;20071;-70
2021/01/24 10:08:26;;;;;;;4.32;2.50;;;4.50;84.80;;;;;;5029529;28;20128;-63
2021/01/24 10:10:51;;;;;;;3.30;2.22;;;4.70;85.50;;;;;;5025708;28;20029;-63
2021/01/24 10:13:17;;;;;;;2.50;2.03;;;4.70;84.50;;;;;;5017835;28;20111;-64
2021/01/24 10:15:43;;;;;;;3.38;2.25;;;4.70;83.90;;;;;;5028124;28;20037;-64
2021/01/24 10:18:09;;;;;;;3.67;2.58;;;4.70;84.60;;;;;;5020813;28;20040;-64
2021/01/24 10:20:34;;;;;;;4.53;2.47;;;4.70;84.20;;;;;;5019920;28;20148;-64
2021/01/24 10:23:00;;;;;;;3.88;2.47;;;4.50;85.50;;;;;;5019623;28;20414;-64
2021/01/24 10:25:27;;;;;;;5.18;2.95;;;4.50;85.60;;;;;;5017654;28;20068;-63
2021/01/24 10:27:53;;;;;;;3.63;2.25;;;4.50;85.20;;;;;;5013045;28;20876;-70
2021/01/24 10:30:20;;;;;;;4.65;2.90;;;4.30;85.60;;;;;;5018979;28;20036;-64
2021/01/24 10:32:46;;;;;;;2.97;2.17;;;4.40;86.80;;;;;;5022585;28;20083;-64
2021/01/24 10:35:11;;;;;;;3.97;2.30;;;4.40;86.00;;;;;;5025979;28;20037;-64
2021/01/24 10:37:37;;;;;;;5.15;2.75;;;4.50;86.00;;;;;;5024762;28;20029;-65
2021/01/24 10:40:04;;;;;;;4.15;2.33;;;4.60;85.10;;;;;;5020750;28;20044;-61
2021/01/24 10:42:30;;;;;;;3.97;2.35;;;4.60;85.00;;;;;;5011964;28;20852;-61
2021/01/24 10:44:58;;;;;;;3.45;2.40;;;4.60;85.70;;;;;;5017854;28;20034;-60
2021/01/24 10:47:25;;;;;;;4.40;2.50;;;4.50;85.10;;;;;;5027328;28;20105;-61
2021/01/24 10:49:50;;;;;;;3.78;2.38;;;4.40;85.50;;;;;;5016703;28;20125;-61
2021/01/24 10:52:16;;;;;;;4.38;2.60;;;4.30;86.20;;;;;;5015144;28;20029;-61
2021/01/24 10:54:42;;;;;;;3.25;2.40;;;4.20;86.50;;;;;;5013133;28;20068;-61
2021/01/24 10:57:08;;;;;;;2.63;2.35;;;4.30;86.30;;;;;;5024713;28;20037;-61
2021/01/24 10:59:33;;;;;;;3.97;2.80;;;4.20;85.50;;;;;;5019797;28;20040;-61
2021/01/24 11:01:59;;;;;;;4.68;2.70;;;4.20;86.30;;;;;;5014296;28;20042;-60
2021/01/24 11:04:25;;;;;;;3.15;2.28;;;4.20;86.70;;;;;;5027759;28;20033;-61
2021/01/24 11:06:50;;;;;;;4.72;2.80;;;4.20;87.00;;;;;;5024614;28;20680;-61
2021/01/24 11:09:16;;;;;;;3.88;3.22;;;4.20;87.50;;;;;;5022234;28;20053;-60
2021/01/24 11:11:42;;;;;;;4.05;2.85;;;4.20;87.30;;;;;;5022462;28;20498;-60
2021/01/24 11:14:07;;;;;;;4.40;3.10;;;4.10;87.70;;;;;;5022353;28;20063;-61
2021/01/24 11:16:33;;;;;;;4.63;3.17;;;4.10;88.20;;;;;;5017742;28;20072;-61
2021/01/24 11:18:59;;;;;;;3.72;2.70;;;4.20;87.70;;;;;;5025390;28;20039;-63
2021/01/24 11:21:25;;;;;;;5.13;3.20;;;4.30;87.50;;;;;;5024237;28;20087;-61
2021/01/24 11:23:51;;;;;;;10.85;5.07;;;4.30;87.20;;;;;;5031489;28;20041;-61
2021/01/24 11:26:17;;;;;;;9.68;5.22;;;4.20;87.00;;;;;;5022255;28;20037;-59
2021/01/24 11:28:42;;;;;;;4.60;3.17;;;4.30;86.90;;;;;;5017867;28;20033;-60
2021/01/24 11:31:08;;;;;;;4.70;3.53;;;4.20;86.50;;;;;;5017392;28;20106;-60
2021/01/24 11:33:34;;;;;;;5.85;3.28;;;4.20;86.80;;;;;;5026691;28;20033;-60
2021/01/24 11:35:59;;;;;;;5.45;3.72;;;4.30;87.20;;;;;;5033466;28;20803;-72
2021/01/24 11:38:25;;;;;;;5.05;3.28;;;4.30;86.60;;;;;;5020378;28;20041;-60
2021/01/24 11:40:51;;;;;;;5.30;3.80;;;4.30;86.70;;;;;;5021987;28;20093;-64
2021/01/24 11:43:16;;;;;;;4.45;3.33;;;4.40;87.20;;;;;;5020050;28;20037;-60
2021/01/24 11:45:42;;;;;;;5.50;3.78;;;4.50;86.20;;;;;;5020015;28;20031;-60
2021/01/24 11:48:08;;;;;;;4.38;3.55;;;4.60;86.10;;;;;;5025631;28;20468;-60
2021/01/24 11:50:34;;;;;;;4.30;3.20;;;4.80;85.20;;;;;;5021715;28;20029;-60
2021/01/24 11:53:00;;;;;;;5.90;3.83;;;4.80;84.40;;;;;;5022000;28;20125;-60
2021/01/24 11:55:25;;;;;;;4.45;3.00;;;4.90;84.40;;;;;;5019349;28;20849;-59
2021/01/24 11:57:51;;;;;;;5.72;3.80;;;4.80;84.80;;;;;;5022080;28;20672;-60
2021/01/24 12:00:17;;;;;;;7.38;4.07;;;4.90;84.80;;;;;;5019639;28;20891;-61
2021/01/24 12:02:43;;;;;;;5.78;3.30;;;4.90;84.20;;;;;;5030996;28;20162;-60
2021/01/24 12:05:09;;;;;;;4.82;3.35;;;4.90;84.40;;;;;;5020275;28;20573;-60
2021/01/24 12:07:35;;;;;;;7.35;4.15;;;5.00;84.70;;;;;;5015825;28;20655;-60
2021/01/24 12:10:00;;;;;;;4.75;3.30;;;5.10;83.90;;;;;;5025373;28;20120;-60
2021/01/24 12:12:26;;;;;;;5.57;3.70;;;5.10;83.50;;;;;;5024703;28;20037;-60
2021/01/24 12:14:52;;;;;;;4.85;3.53;;;5.10;83.20;;;;;;5022467;28;20142;-60
2021/01/24 12:17:24;;;;;;;8.00;4.18;;;5.10;82.70;;;;;;5024382;28;20132;-60
2021/01/24 12:19:52;;;;;;;6.20;3.97;;;5.10;83.20;;;;;;5008975;28;20041;-59
2021/01/24 12:22:18;;;;;;;5.15;3.40;;;5.00;83.30;;;;;;5018923;28;20049;-69
2021/01/24 12:24:44;;;;;;;4.28;2.80;;;4.90;83.20;;;;;;5023057;28;20448;-60
2021/01/24 12:27:09;;;;;;;4.45;2.95;;;4.90;83.40;;;;;;5015208;28;20978;-60
2021/01/24 12:29:35;;;;;;;3.40;2.85;;;4.90;83.40;;;;;;5019247;28;20036;-60
2021/01/24 12:32:01;;;;;;;4.65;2.78;;;5.00;83.00;;;;;;5009833;28;20082;-60
2021/01/24 12:34:26;;;;;;;3.58;3.00;;;4.90;83.60;;;;;;5015727;28;20049;-60
2021/01/24 12:36:52;;;;;;;4.57;3.00;;;4.90;83.60;;;;;;5020881;28;20041;-60
2021/01/24 12:39:18;;;;;;;3.58;2.88;;;4.90;83.60;;;;;;5020229;28;20037;-59
2021/01/24 12:41:43;;;;;;;3.80;2.63;;;5.00;83.80;;;;;;5011343;28;20565;-60
2021/01/24 12:44:09;;;;;;;3.58;2.67;;;5.00;83.00;;;;;;5010223;28;20040;-60
2021/01/24 12:46:35;;;;;;;4.55;3.20;;;5.00;83.20;;;;;;5022860;28;20033;-60
2021/01/24 12:49:00;;;;;;;5.03;3.35;;;5.00;83.30;;;;;;5026594;28;20099;-60
2021/01/24 12:51:26;;;;;;;4.20;3.30;;;5.00;83.10;;;;;;5026337;28;20816;-59